createdAt,value
2018-06-18T00:01:38.129Z,11.68
2018-06-18T00:04:06.098Z,11.27
2018-06-18T00:06:33.249Z,12.50
2018-06-18T00:09:00.198Z,11.77
2018-06-18T00:11:27.244Z,12.57
2018-06-18T00:13:54.397Z,11.07
2018-06-18T00:16:21.385Z,11.15
2018-06-18T00:18:48.493Z,11.57
2018-06-18T00:21:15.894Z,12.43
2018-06-18T00:23:42.901Z,11.52
2018-06-18T00:26:09.946Z,11.00
2018-06-18T00:28:37.096Z,14.52
2018-06-18T00:31:04.145Z,13.65
2018-06-18T00:33:31.295Z,12.43
2018-06-18T00:35:58.349Z,11.15
2018-06-18T00:38:25.395Z,11.55
2018-06-18T00:40:52.446Z,12.63
2018-06-18T00:43:19.497Z,12.45
2018-06-18T00:45:46.540Z,14.27
2018-06-18T00:48:13.586Z,12.00
2018-06-18T00:50:40.576Z,12.37
2018-06-18T00:53:07.890Z,12.95
2018-06-18T00:55:51.016Z,12.55
2018-06-18T00:58:18.116Z,12.77
2018-06-18T01:00:45.113Z,13.62
2018-06-18T01:03:12.064Z,12.90
2018-06-18T01:05:39.108Z,13.18
2018-06-18T01:08:09.534Z,13.13
2018-06-18T01:10:36.589Z,13.25
2018-06-18T01:13:03.633Z,12.75
2018-06-18T01:15:30.681Z,13.10
2018-06-18T01:17:57.736Z,12.80
2018-06-18T01:20:24.780Z,13.73
2018-06-18T01:22:54.079Z,13.75
2018-06-18T01:25:21.130Z,13.93
2018-06-18T01:27:48.121Z,14.63
2018-06-18T01:30:15.124Z,13.88
2018-06-18T01:32:42.177Z,14.30
2018-06-18T01:35:09.223Z,13.68
2018-06-18T01:37:36.270Z,14.50
2018-06-18T01:40:03.322Z,13.75
2018-06-18T01:42:30.473Z,16.02
2018-06-18T01:44:57.527Z,13.55
2018-06-18T01:47:24.565Z,13.62
2018-06-18T01:49:51.623Z,16.95
2018-06-18T01:52:18.561Z,13.68
2018-06-18T01:54:45.614Z,15.40
2018-06-18T01:57:12.661Z,15.88
2018-06-18T01:59:39.711Z,16.05
2018-06-18T02:02:06.763Z,16.62
2018-06-18T02:04:33.806Z,16.20
2018-06-18T02:07:00.860Z,15.75
2018-06-18T02:09:27.909Z,15.50
2018-06-18T02:11:56.076Z,15.80
2018-06-18T02:14:23.440Z,16.62
2018-06-18T02:16:50.481Z,16.50
2018-06-18T02:19:17.530Z,15.68
2018-06-18T02:21:44.681Z,17.02
2018-06-18T02:24:11.736Z,16.30
2018-06-18T02:26:38.778Z,16.23
2018-06-18T02:29:20.674Z,16.50
2018-06-18T02:31:53.923Z,15.07
2018-06-18T02:34:35.765Z,16.25
2018-06-18T02:37:18.687Z,15.70
2018-06-18T02:39:46.758Z,16.00
2018-06-18T02:42:14.729Z,16.52
2018-06-18T02:44:41.783Z,17.05
2018-06-18T02:47:09.030Z,16.37
2018-06-18T02:49:37.053Z,17.45
2018-06-18T02:52:04.771Z,16.77
2018-06-18T02:54:31.817Z,16.95
2018-06-18T02:56:58.863Z,17.33
2018-06-18T02:59:26.015Z,16.98
2018-06-18T03:01:53.068Z,16.65
2018-06-18T03:04:20.066Z,17.15
2018-06-18T03:06:47.161Z,15.98
2018-06-18T03:09:14.213Z,17.12
2018-06-18T03:11:41.258Z,19.73
2018-06-18T03:14:09.226Z,18.45
2018-06-18T03:16:36.281Z,16.25
2018-06-18T03:19:03.433Z,16.75
2018-06-18T03:21:45.427Z,16.27
2018-06-18T03:24:13.500Z,16.87
2018-06-18T03:26:58.973Z,21.75
2018-06-18T03:29:42.070Z,16.87
2018-06-18T03:32:09.051Z,15.40
2018-06-18T03:34:36.105Z,16.90
2018-06-18T03:37:03.256Z,16.50
2018-06-18T03:39:30.299Z,16.40
2018-06-18T03:41:57.348Z,16.33
2018-06-18T03:44:24.401Z,16.15
2018-06-18T03:46:51.444Z,16.90
2018-06-18T03:49:18.493Z,16.70
2018-06-18T03:51:45.547Z,16.48
2018-06-18T03:54:12.537Z,16.87
2018-06-18T03:56:39.547Z,16.83
2018-06-18T03:59:06.585Z,16.48
2018-06-18T04:01:48.428Z,21.37
2018-06-18T04:04:30.276Z,16.98
2018-06-18T04:07:13.000Z,17.55
2018-06-18T04:09:39.989Z,19.15
2018-06-18T04:12:07.558Z,18.02
2018-06-18T04:14:34.549Z,18.10
2018-06-18T04:17:01.605Z,18.15
2018-06-18T04:19:28.705Z,18.83
2018-06-18T04:21:55.694Z,18.12
2018-06-18T04:24:22.749Z,17.35
2018-06-18T04:26:49.791Z,17.40
2018-06-18T04:29:28.310Z,17.98
2018-06-18T04:31:55.358Z,19.45
2018-06-18T04:34:24.074Z,20.60
2018-06-18T04:36:52.023Z,18.52
2018-06-18T04:39:19.065Z,18.62
2018-06-18T04:41:46.114Z,18.12
2018-06-18T04:44:19.715Z,18.02
2018-06-18T04:46:46.873Z,16.55
2018-06-18T04:49:30.818Z,17.48
2018-06-18T04:51:57.864Z,16.33
2018-06-18T04:54:24.914Z,16.35
2018-06-18T04:56:51.963Z,17.87
2018-06-18T04:59:19.120Z,18.37
2018-06-18T05:01:46.159Z,17.50
2018-06-18T05:04:13.210Z,15.02
2018-06-18T05:06:41.380Z,16.15
2018-06-18T05:09:09.452Z,16.62
2018-06-18T05:11:36.506Z,16.02
2018-06-18T05:14:03.555Z,16.10
2018-06-18T05:16:30.599Z,15.20
2018-06-18T05:18:57.647Z,16.17
2018-06-18T05:21:24.701Z,16.95
2018-06-18T05:23:51.749Z,17.45
2018-06-18T05:26:18.946Z,17.50
2018-06-18T05:28:45.805Z,17.15
2018-06-18T05:31:12.791Z,18.83
2018-06-18T05:33:39.851Z,17.40
2018-06-18T05:36:09.341Z,17.98
2018-06-18T05:38:36.392Z,17.17
2018-06-18T05:41:03.445Z,18.85
2018-06-18T05:43:30.748Z,19.80
2018-06-18T05:45:57.747Z,17.20
2018-06-18T05:48:24.791Z,17.77
2018-06-18T05:50:52.061Z,18.58
2018-06-18T05:53:19.815Z,18.23
2018-06-18T05:55:46.858Z,16.87
2018-06-18T05:58:13.906Z,18.23
2018-06-18T06:00:40.960Z,19.80
2018-06-18T06:03:08.925Z,17.50
2018-06-18T06:05:35.974Z,16.90
2018-06-18T06:08:02.966Z,17.42
2018-06-18T06:10:30.072Z,19.45
2018-06-18T06:12:57.137Z,18.83
2018-06-18T06:15:24.174Z,20.42
2018-06-18T06:17:51.217Z,22.73
2018-06-18T06:20:18.265Z,18.98
2018-06-18T06:22:45.320Z,18.92
2018-06-18T06:25:12.314Z,19.35
2018-06-18T06:27:39.314Z,20.75
2018-06-18T06:30:06.356Z,20.67
2018-06-18T06:32:33.406Z,21.15
2018-06-18T06:35:00.461Z,19.98
2018-06-18T06:37:27.532Z,20.62
2018-06-18T06:39:54.553Z,22.25
2018-06-18T06:42:21.460Z,20.92
2018-06-18T06:44:48.450Z,20.88
2018-06-18T06:47:15.493Z,19.73
2018-06-18T06:49:42.380Z,21.17
2018-06-18T06:52:09.384Z,21.12
2018-06-18T06:54:36.439Z,21.30
2018-06-18T06:57:03.482Z,20.00
2018-06-18T06:59:30.634Z,17.12
2018-06-18T07:01:57.681Z,17.23
2018-06-18T07:04:24.737Z,18.12
2018-06-18T07:06:51.816Z,17.70
2018-06-18T07:09:18.828Z,19.27
2018-06-18T07:11:45.881Z,18.73
2018-06-18T07:14:12.924Z,18.37
2018-06-18T07:16:39.973Z,16.73
2018-06-18T07:19:07.027Z,17.30
2018-06-18T07:21:34.072Z,17.35
2018-06-18T07:24:01.434Z,18.55
2018-06-18T07:26:28.481Z,17.52
2018-06-18T07:28:55.729Z,16.75
2018-06-18T07:31:22.783Z,16.50
2018-06-18T07:33:49.826Z,15.05
2018-06-18T07:36:16.876Z,14.43
2018-06-18T07:38:43.974Z,13.62
2018-06-18T07:41:10.972Z,13.10
2018-06-18T07:43:37.925Z,11.77
2018-06-18T07:46:04.865Z,11.23
2018-06-18T07:48:31.817Z,14.05
2018-06-18T07:50:58.868Z,11.80
2018-06-18T07:53:26.013Z,11.27
2018-06-18T07:55:53.066Z,10.70
2018-06-18T07:58:20.625Z,9.90
2018-06-18T08:00:47.773Z,11.18
2018-06-18T08:03:14.922Z,11.40
2018-06-18T08:05:42.379Z,10.77
2018-06-18T08:08:09.439Z,11.23
2018-06-18T08:10:36.478Z,11.12
2018-06-18T08:13:03.526Z,11.85
2018-06-18T08:15:30.580Z,11.90
2018-06-18T08:17:57.622Z,19.60
2018-06-18T08:20:24.884Z,11.25
2018-06-18T08:22:52.031Z,11.90
2018-06-18T08:25:19.077Z,12.88
2018-06-18T08:27:46.336Z,11.35
2018-06-18T08:30:13.685Z,13.52
2018-06-18T08:32:40.734Z,12.02
2018-06-18T08:35:07.719Z,10.35
2018-06-18T08:37:34.729Z,6.50
2018-06-18T08:40:01.764Z,5.40
2018-06-18T08:42:28.726Z,5.20
2018-06-18T08:44:55.777Z,5.12
2018-06-18T08:47:22.823Z,4.22
2018-06-18T08:49:49.869Z,5.40
2018-06-18T08:52:23.068Z,5.43
2018-06-18T08:54:56.868Z,5.40
2018-06-18T08:57:41.839Z,5.93
2018-06-18T09:00:28.758Z,6.25
2018-06-18T09:02:55.910Z,6.43
2018-06-18T09:05:22.952Z,8.10
2018-06-18T09:07:50.001Z,12.68
2018-06-18T09:10:17.563Z,10.60
2018-06-18T09:12:45.274Z,9.48
2018-06-18T09:15:12.277Z,7.30
2018-06-18T09:17:39.321Z,6.72
2018-06-18T09:20:07.600Z,7.00
2018-06-18T09:22:34.701Z,6.43
2018-06-18T09:25:01.697Z,6.57
2018-06-18T09:27:29.571Z,6.82
2018-06-18T09:29:57.065Z,7.00
2018-06-18T09:32:24.127Z,6.22
2018-06-18T09:34:51.733Z,6.53
2018-06-18T09:37:18.787Z,6.10
2018-06-18T09:39:46.137Z,5.97
2018-06-18T09:42:13.739Z,6.35
2018-06-18T09:44:40.747Z,6.37
2018-06-18T09:47:07.899Z,6.57
2018-06-18T09:49:51.023Z,6.65
2018-06-18T09:52:32.922Z,5.40
2018-06-18T09:55:16.661Z,6.18
2018-06-18T09:57:58.664Z,6.78
2018-06-18T10:00:25.849Z,8.73
2018-06-18T10:02:52.966Z,6.22
2018-06-18T10:05:20.829Z,5.97
2018-06-18T10:07:48.082Z,6.35
2018-06-18T10:10:15.134Z,6.97
2018-06-18T10:12:42.184Z,7.18
2018-06-18T10:15:09.125Z,5.28
2018-06-18T10:17:36.180Z,5.15
2018-06-18T10:20:03.059Z,5.15
2018-06-18T10:22:30.067Z,5.28
2018-06-18T10:24:57.427Z,4.80
2018-06-18T10:27:24.508Z,5.28
2018-06-18T10:29:51.520Z,5.10
2018-06-18T10:32:19.395Z,4.10
2018-06-18T10:35:04.151Z,4.82
2018-06-18T10:37:50.348Z,5.32
2018-06-18T10:40:24.261Z,4.85
2018-06-18T10:43:10.100Z,5.68
2018-06-18T10:45:37.510Z,4.22
2018-06-18T10:48:05.892Z,4.90
2018-06-18T10:50:32.936Z,5.37
2018-06-18T10:52:59.985Z,4.70
2018-06-18T10:55:27.036Z,5.15
2018-06-18T10:57:54.187Z,4.93
2018-06-18T11:00:21.536Z,5.07
2018-06-18T11:02:48.587Z,5.80
2018-06-18T11:05:15.652Z,6.37
2018-06-18T11:07:42.682Z,6.03
2018-06-18T11:10:09.756Z,5.12
2018-06-18T11:12:36.784Z,5.72
2018-06-18T11:15:03.827Z,5.47
2018-06-18T11:17:30.979Z,5.28
2018-06-18T11:20:14.001Z,5.65
2018-06-18T11:22:41.153Z,5.62
2018-06-18T11:25:14.181Z,5.05
2018-06-18T11:27:42.316Z,5.00
2018-06-18T11:30:09.364Z,5.15
2018-06-18T11:32:37.268Z,5.30
2018-06-18T11:35:04.492Z,4.65
2018-06-18T11:37:31.642Z,6.60
2018-06-18T11:39:58.686Z,5.20
2018-06-18T11:42:25.734Z,5.47
2018-06-18T11:44:52.687Z,6.78
2018-06-18T11:47:19.665Z,7.53
2018-06-18T11:49:46.982Z,5.03
2018-06-18T11:52:15.960Z,4.95
2018-06-18T11:54:43.330Z,5.12
2018-06-18T11:57:10.384Z,5.30
2018-06-18T11:59:43.162Z,5.95
2018-06-18T12:02:16.054Z,4.80
2018-06-18T12:05:00.344Z,4.65
2018-06-18T12:07:33.900Z,4.75
2018-06-18T12:10:01.052Z,4.32
2018-06-18T12:12:28.363Z,5.72
2018-06-18T12:14:55.561Z,4.50
2018-06-18T12:17:23.174Z,4.62
2018-06-18T12:19:50.520Z,5.00
2018-06-18T12:22:17.960Z,4.97
2018-06-18T12:24:44.987Z,4.30
2018-06-18T12:27:12.137Z,4.57
2018-06-18T12:29:39.290Z,4.55
2018-06-18T12:32:06.539Z,4.50
2018-06-18T12:34:33.689Z,4.57
2018-06-18T12:37:03.513Z,4.55
2018-06-18T12:39:32.571Z,5.45
2018-06-18T12:42:00.604Z,4.10
2018-06-18T12:44:27.822Z,3.70
2018-06-18T12:47:14.854Z,3.90
2018-06-18T12:49:58.479Z,3.95
2018-06-18T12:52:42.017Z,4.30
2018-06-18T12:55:28.108Z,4.20
2018-06-18T12:57:57.364Z,4.30
2018-06-18T13:00:25.430Z,4.07
2018-06-18T13:02:52.630Z,3.80
2018-06-18T13:05:20.395Z,4.12
2018-06-18T13:07:47.447Z,4.43
2018-06-18T13:10:17.157Z,4.22
2018-06-18T13:12:44.108Z,3.90
2018-06-18T13:15:11.355Z,4.55
2018-06-18T13:17:38.408Z,4.20
2018-06-18T13:20:06.513Z,4.28
2018-06-18T13:22:33.524Z,3.95
2018-06-18T13:25:01.399Z,4.20
2018-06-18T13:27:28.580Z,3.70
2018-06-18T13:29:55.610Z,4.60
2018-06-18T13:32:22.639Z,4.25
2018-06-18T13:34:49.694Z,4.20
2018-06-18T13:37:16.852Z,3.90
2018-06-18T13:40:00.635Z,4.00
2018-06-18T13:42:44.422Z,3.95
2018-06-18T13:45:17.625Z,3.55
2018-06-18T13:48:01.548Z,3.05
2018-06-18T13:50:28.804Z,3.53
2018-06-18T13:52:56.569Z,3.45
2018-06-18T13:55:23.614Z,3.25
2018-06-18T13:57:50.657Z,3.50
2018-06-18T14:00:18.118Z,3.78
2018-06-18T14:02:45.189Z,3.72
2018-06-18T14:05:12.634Z,3.50
2018-06-18T14:07:39.671Z,3.05
2018-06-18T14:10:06.725Z,3.12
2018-06-18T14:12:33.775Z,3.67
2018-06-18T14:15:01.985Z,7.47
2018-06-18T14:17:29.505Z,4.47
2018-06-18T14:19:56.658Z,3.78
2018-06-18T14:22:23.702Z,4.05
2018-06-18T14:24:50.956Z,3.70
2018-06-18T14:27:18.004Z,3.60
2018-06-18T14:29:45.057Z,3.83
2018-06-18T14:32:13.668Z,3.70
2018-06-18T14:35:01.678Z,3.45
2018-06-18T14:37:48.081Z,6.12
2018-06-18T14:40:16.473Z,3.60
2018-06-18T14:42:44.224Z,3.62
2018-06-18T14:45:11.694Z,3.97
2018-06-18T14:47:38.952Z,4.12
2018-06-18T14:50:06.195Z,3.97
2018-06-18T14:52:33.260Z,4.07
2018-06-18T14:55:00.637Z,3.60
2018-06-18T14:57:29.691Z,33.65
2018-06-18T14:59:57.674Z,4.43
2018-06-18T15:02:26.574Z,5.32
2018-06-18T15:04:54.027Z,5.32
2018-06-18T15:07:21.121Z,4.15
2018-06-18T15:09:49.238Z,3.70
2018-06-18T15:12:17.510Z,4.68
2018-06-18T15:14:46.946Z,3.80
2018-06-18T15:17:14.006Z,3.80
2018-06-18T15:19:41.010Z,3.78
2018-06-18T15:22:09.281Z,4.00
2018-06-18T15:24:36.540Z,4.07
2018-06-18T15:27:03.629Z,3.40
2018-06-18T15:29:37.913Z,3.78
2018-06-18T15:32:06.294Z,3.60
2018-06-18T15:34:36.304Z,5.47
2018-06-18T15:37:06.620Z,3.60
2018-06-18T15:39:39.382Z,4.07
2018-06-18T15:42:07.112Z,4.40
2018-06-18T15:44:35.868Z,4.40
2018-06-18T15:47:05.185Z,4.93
2018-06-18T15:49:41.401Z,4.18
2018-06-18T15:52:14.683Z,4.53
2018-06-18T15:54:46.799Z,6.75
2018-06-18T15:57:18.239Z,6.62
2018-06-18T15:59:52.887Z,4.22
2018-06-18T16:02:24.332Z,4.50
2018-06-18T16:04:58.066Z,5.57
2018-06-18T16:07:31.434Z,4.82
2018-06-18T16:10:15.719Z,4.82
2018-06-18T16:12:54.904Z,4.10
2018-06-18T16:15:30.052Z,3.90
2018-06-18T16:18:03.368Z,3.67
2018-06-18T16:20:37.839Z,4.12
2018-06-18T16:23:14.988Z,3.70
2018-06-18T16:25:49.008Z,3.95
2018-06-18T16:28:23.483Z,4.32
2018-06-18T16:30:57.978Z,5.22
2018-06-18T16:33:34.066Z,4.28
2018-06-18T16:36:13.635Z,6.03
2018-06-18T16:38:46.842Z,5.50
2018-06-18T16:41:21.189Z,6.03
2018-06-18T16:43:54.942Z,14.75
2018-06-18T16:46:29.996Z,6.12
2018-06-18T16:49:02.620Z,7.18
2018-06-18T16:51:31.032Z,3.20
2018-06-18T16:53:59.745Z,2.97
2018-06-18T16:56:28.147Z,3.40
2018-06-18T16:58:57.107Z,3.53
2018-06-18T17:01:25.925Z,3.03
2018-06-18T17:03:54.579Z,3.05
2018-06-18T17:06:22.992Z,2.80
2018-06-18T17:08:50.914Z,3.08
2018-06-18T17:11:18.373Z,3.28
2018-06-18T17:13:46.657Z,3.03
2018-06-18T17:16:14.313Z,2.78
2018-06-18T17:18:42.290Z,6.03
2018-06-18T17:21:12.316Z,3.22
2018-06-18T17:23:43.963Z,2.70
2018-06-18T17:26:13.305Z,2.95
2018-06-18T17:28:40.853Z,3.15
2018-06-18T17:31:08.588Z,2.65
2018-06-18T17:33:36.903Z,2.47
2018-06-18T17:36:03.920Z,2.97
2018-06-18T17:38:31.068Z,3.12
2018-06-18T17:40:58.417Z,2.70
2018-06-18T17:43:28.181Z,2.78
2018-06-18T17:45:57.028Z,2.65
2018-06-18T17:48:24.033Z,2.35
2018-06-18T17:50:51.835Z,2.08
2018-06-18T17:53:19.745Z,2.40
2018-06-18T17:58:32.994Z,3.30
2018-06-18T18:01:01.238Z,1.90
2018-06-18T18:03:30.163Z,4.50
2018-06-18T18:05:57.269Z,8.82
2018-06-18T18:08:25.992Z,12.48
2018-06-18T18:10:53.927Z,8.35
2018-06-18T18:13:24.003Z,12.52
2018-06-18T18:15:51.299Z,3.90
2018-06-18T18:18:19.811Z,4.80
2018-06-18T18:20:48.194Z,5.22
2018-06-18T18:23:17.692Z,3.95
2018-06-18T18:25:46.097Z,8.05
2018-06-18T18:28:14.639Z,5.30
2018-06-18T18:30:43.178Z,5.00
2018-06-18T18:33:11.837Z,10.73
2018-06-18T18:35:40.540Z,4.87
2018-06-18T18:38:08.355Z,8.52
2018-06-18T18:40:37.276Z,5.60
2018-06-18T18:43:08.481Z,5.43
2018-06-18T18:45:40.503Z,5.35
2018-06-18T18:48:12.877Z,8.30
2018-06-18T18:50:41.680Z,8.10
2018-06-18T18:53:09.828Z,6.57
2018-06-18T18:55:58.300Z,6.22
2018-06-18T18:58:26.325Z,10.15
2018-06-18T19:03:31.912Z,8.38
2018-06-18T19:06:07.235Z,7.10
2018-06-18T19:08:37.658Z,10.40
2018-06-18T19:11:09.773Z,5.87
2018-06-18T19:13:39.172Z,6.37
2018-06-18T19:16:10.327Z,7.18
2018-06-18T19:18:39.165Z,8.07
2018-06-18T19:21:11.568Z,6.80
2018-06-18T19:23:42.401Z,7.68
2018-06-18T19:26:11.936Z,6.40
2018-06-18T19:28:42.046Z,6.30
2018-06-18T19:31:11.626Z,8.93
2018-06-18T19:33:40.501Z,6.32
2018-06-18T19:36:10.509Z,7.20
2018-06-18T19:38:42.878Z,6.68
2018-06-18T19:41:12.708Z,6.80
2018-06-18T19:43:40.578Z,11.20
2018-06-18T19:46:24.326Z,8.65
2018-06-18T19:48:56.490Z,5.45
2018-06-18T19:51:25.272Z,5.75
2018-06-18T19:53:53.140Z,5.05
2018-06-18T19:56:24.930Z,5.30
2018-06-18T19:58:54.381Z,4.30
2018-06-18T20:01:28.752Z,7.68
2018-06-18T20:03:59.319Z,4.07
2018-06-18T20:06:27.022Z,8.63
2018-06-18T20:08:55.758Z,5.78
2018-06-18T20:11:25.261Z,5.20
2018-06-18T20:13:55.868Z,6.80
2018-06-18T20:16:23.416Z,14.80
2018-06-18T20:18:52.940Z,9.05
2018-06-18T20:21:20.269Z,12.95
2018-06-18T20:23:49.879Z,7.28
2018-06-18T20:26:18.700Z,9.23
2018-06-18T20:28:49.096Z,8.25
2018-06-18T20:31:18.649Z,7.82
2018-06-18T20:33:46.163Z,7.32
2018-06-18T20:36:15.592Z,13.45
2018-06-18T20:38:43.946Z,8.65
2018-06-18T20:41:13.242Z,5.80
2018-06-18T20:43:41.831Z,11.07
2018-06-18T20:46:10.041Z,9.93
2018-06-18T20:48:43.370Z,6.45
2018-06-18T20:51:14.212Z,11.93
2018-06-18T20:53:44.289Z,5.15
2018-06-18T20:56:13.095Z,8.98
2018-06-18T20:58:42.249Z,4.97
2018-06-18T21:01:12.374Z,6.85
2018-06-18T21:03:44.036Z,8.70
2018-06-18T21:06:12.569Z,6.45
2018-06-18T21:08:39.694Z,5.87
2018-06-18T21:11:08.681Z,4.53
2018-06-18T21:13:35.810Z,4.18
2018-06-18T21:16:04.992Z,4.45
2018-06-18T21:18:33.078Z,5.47
2018-06-18T21:21:00.432Z,4.70
2018-06-18T21:23:30.903Z,8.77
2018-06-18T21:25:58.938Z,5.45
2018-06-18T21:28:25.986Z,6.97
2018-06-18T21:30:53.758Z,5.30
2018-06-18T21:33:22.180Z,5.65
2018-06-18T21:35:49.277Z,9.27
2018-06-18T21:38:16.325Z,5.78
2018-06-18T21:40:43.481Z,5.80
2018-06-18T21:43:10.533Z,6.03
2018-06-18T21:45:37.516Z,6.97
2018-06-18T21:48:04.527Z,5.35
2018-06-18T21:50:31.774Z,5.43
2018-06-18T21:52:58.829Z,8.60
2018-06-18T21:55:25.871Z,6.30
2018-06-18T21:57:52.920Z,7.00
2018-06-18T22:00:27.493Z,5.03
2018-06-18T22:02:56.484Z,6.85
2018-06-18T22:05:23.588Z,10.48
2018-06-18T22:07:50.950Z,6.68
2018-06-18T22:10:19.224Z,5.15
2018-06-18T22:12:46.272Z,5.22
2018-06-18T22:15:13.325Z,4.95
2018-06-18T22:17:40.370Z,7.40
2018-06-18T22:20:07.421Z,4.68
2018-06-18T22:22:34.472Z,5.87
2018-06-18T22:25:01.413Z,7.82
2018-06-18T22:27:28.468Z,4.37
2018-06-18T22:29:55.718Z,7.62
2018-06-18T22:32:22.769Z,5.12
2018-06-18T22:34:49.812Z,5.30
2018-06-18T22:37:16.964Z,5.20
2018-06-18T22:39:44.116Z,5.70
2018-06-18T22:42:11.161Z,8.05
2018-06-18T22:44:38.216Z,5.18
2018-06-18T22:47:05.235Z,6.72
2018-06-18T22:49:32.285Z,8.25
2018-06-18T22:51:59.228Z,6.87
2018-06-18T22:54:26.304Z,8.07
2018-06-18T22:56:53.336Z,7.85
2018-06-18T22:59:20.373Z,5.22
2018-06-18T23:01:47.429Z,7.43
2018-06-18T23:04:14.469Z,5.25
2018-06-18T23:06:41.377Z,7.00
2018-06-18T23:09:08.359Z,5.72
2018-06-18T23:11:35.306Z,8.52
2018-06-18T23:14:03.793Z,5.62
2018-06-18T23:16:31.146Z,6.40
2018-06-18T23:18:58.195Z,6.45
2018-06-18T23:21:25.140Z,7.85
2018-06-18T23:23:52.705Z,6.37
2018-06-18T23:26:19.647Z,7.72
2018-06-18T23:28:46.594Z,5.87
2018-06-18T23:31:14.256Z,6.95
2018-06-18T23:33:42.277Z,10.55
2018-06-18T23:36:09.275Z,7.07
2018-06-18T23:38:36.324Z,7.03
2018-06-18T23:41:03.269Z,6.87
2018-06-18T23:43:30.317Z,6.10
2018-06-18T23:45:58.187Z,6.43
2018-06-18T23:48:25.067Z,6.57
2018-06-18T23:50:52.078Z,7.03
2018-06-18T23:53:20.254Z,8.38
2018-06-18T23:55:47.861Z,7.45
2018-06-18T23:58:14.804Z,6.95
